createdAt,value
2023-01-19T00:00:49.984Z,23.23
2023-01-19T00:05:46.985Z,20.27
2023-01-19T00:10:45.291Z,24.50
2023-01-19T00:15:42.783Z,23.08
2023-01-19T00:20:40.027Z,22.33
2023-01-19T00:25:41.602Z,18.15
2023-01-19T00:30:38.488Z,24.10
2023-01-19T00:35:36.146Z,22.27
2023-01-19T00:40:33.006Z,17.67
2023-01-19T00:45:30.324Z,18.92
2023-01-19T00:50:28.877Z,27.65
2023-01-19T00:55:27.990Z,22.85
2023-01-19T01:00:25.872Z,20.23
2023-01-19T01:05:22.770Z,22.83
2023-01-19T01:10:22.185Z,17.40
2023-01-19T01:15:20.575Z,23.58
2023-01-19T01:20:19.580Z,26.63
2023-01-19T01:25:19.327Z,21.63
2023-01-19T01:30:16.602Z,18.00
2023-01-19T01:35:14.582Z,37.05
2023-01-19T01:40:13.816Z,19.75
2023-01-19T01:45:31.030Z,21.70
2023-01-19T01:50:30.212Z,20.42
2023-01-19T01:55:28.648Z,17.90
2023-01-19T02:00:25.455Z,17.63
2023-01-19T02:05:28.212Z,19.65
2023-01-19T02:10:43.705Z,17.15
2023-01-19T02:15:40.494Z,15.57
2023-01-19T02:20:39.338Z,19.95
2023-01-19T02:25:36.885Z,18.77
2023-01-19T02:30:35.222Z,21.02
2023-01-19T02:35:33.365Z,23.73
2023-01-19T02:40:30.952Z,21.30
2023-01-19T02:45:29.029Z,17.02
2023-01-19T02:50:38.852Z,28.40
2023-01-19T02:55:36.895Z,26.75
2023-01-19T03:00:46.512Z,18.00
2023-01-19T03:05:56.128Z,16.70
2023-01-19T03:11:00.452Z,16.10
2023-01-19T03:16:02.779Z,22.40
2023-01-19T03:21:05.630Z,16.05
2023-01-19T03:26:05.001Z,21.10
2023-01-19T03:31:08.607Z,23.92
2023-01-19T03:36:11.638Z,18.38
2023-01-19T03:41:11.442Z,20.15
2023-01-19T03:46:10.708Z,19.25
2023-01-19T03:51:09.956Z,19.45
2023-01-19T03:56:14.772Z,15.32
2023-01-19T04:01:13.136Z,18.23
2023-01-19T04:06:10.768Z,27.83
2023-01-19T04:11:07.715Z,23.33
2023-01-19T04:16:10.970Z,19.83
2023-01-19T04:21:09.423Z,19.52
2023-01-19T04:26:13.457Z,23.60
2023-01-19T04:31:12.508Z,21.20
2023-01-19T04:36:10.513Z,26.17
2023-01-19T04:41:11.607Z,25.85
2023-01-19T04:46:09.620Z,24.58
2023-01-19T04:51:06.672Z,17.70
2023-01-19T04:56:06.129Z,21.27
2023-01-19T05:01:08.517Z,20.05
2023-01-19T05:06:07.422Z,23.95
2023-01-19T05:11:08.843Z,18.13
2023-01-19T05:16:16.787Z,25.10
2023-01-19T05:21:17.344Z,24.90
2023-01-19T05:26:20.309Z,23.85
2023-01-19T05:31:19.657Z,32.13
2023-01-19T05:36:17.096Z,22.75
2023-01-19T05:41:17.449Z,27.15
2023-01-19T05:46:19.387Z,24.33
2023-01-19T05:51:17.440Z,21.58
2023-01-19T05:56:20.505Z,24.48
2023-01-19T06:01:18.914Z,28.88
2023-01-19T06:06:26.760Z,24.02
2023-01-19T06:11:25.580Z,25.13
2023-01-19T06:16:26.264Z,28.45
2023-01-19T06:21:24.083Z,22.63
2023-01-19T06:26:25.218Z,24.23
2023-01-19T06:31:25.781Z,24.83
2023-01-19T06:36:25.848Z,24.65
2023-01-19T06:41:23.325Z,32.55
2023-01-19T06:46:20.526Z,24.67
2023-01-19T06:51:20.995Z,22.02
2023-01-19T06:56:18.405Z,28.88
2023-01-19T07:01:17.116Z,29.98
2023-01-19T07:06:34.237Z,25.65
2023-01-19T07:11:43.453Z,27.00
2023-01-19T07:16:40.559Z,31.65
2023-01-19T07:21:38.672Z,29.20
2023-01-19T07:26:40.752Z,29.15
2023-01-19T07:31:39.911Z,26.92
2023-01-19T07:36:37.980Z,28.80
2023-01-19T07:41:35.238Z,28.30
2023-01-19T07:46:33.661Z,28.60
2023-01-19T07:51:31.812Z,26.80
2023-01-19T07:56:33.890Z,32.50
2023-01-19T08:01:34.152Z,33.25
2023-01-19T08:06:34.649Z,24.65
2023-01-19T08:11:32.864Z,27.75
2023-01-19T08:16:30.053Z,29.25
2023-01-19T08:21:28.701Z,30.52
2023-01-19T08:26:31.073Z,22.08
2023-01-19T08:31:29.168Z,32.50
2023-01-19T08:36:26.892Z,27.23
2023-01-19T08:41:25.997Z,31.00
2023-01-19T08:46:23.534Z,27.98
2023-01-19T08:51:21.866Z,30.90
2023-01-19T08:56:21.657Z,29.30
2023-01-19T09:01:20.185Z,28.45
2023-01-19T09:06:29.985Z,30.98
2023-01-19T09:11:34.026Z,26.10
2023-01-19T09:16:36.937Z,27.35
2023-01-19T09:21:45.919Z,26.75
2023-01-19T09:26:51.873Z,30.02
2023-01-19T09:31:53.027Z,28.85
2023-01-19T09:37:00.225Z,24.10
2023-01-19T09:42:09.548Z,31.90
2023-01-19T09:47:17.344Z,26.67
2023-01-19T09:52:24.357Z,22.58
2023-01-19T09:57:23.193Z,32.47
2023-01-19T10:02:32.852Z,29.55
2023-01-19T10:08:03.955Z,37.55
2023-01-19T10:13:21.720Z,35.13
2023-01-19T10:18:25.335Z,28.83
2023-01-19T10:23:38.636Z,26.33
2023-01-19T10:28:40.763Z,35.90
2023-01-19T10:33:43.920Z,29.35
2023-01-19T10:38:44.427Z,26.67
2023-01-19T10:44:02.928Z,22.65
2023-01-19T10:49:03.572Z,30.13
2023-01-19T10:54:06.993Z,36.95
2023-01-19T10:59:28.500Z,33.20
2023-01-19T11:04:32.806Z,23.50
2023-01-19T11:09:41.888Z,32.50
2023-01-19T11:14:41.151Z,29.23
2023-01-19T11:19:46.076Z,25.60
2023-01-19T11:24:44.600Z,17.10
2023-01-19T11:29:52.633Z,36.05
2023-01-19T11:34:53.278Z,26.85
2023-01-19T11:39:53.609Z,25.63
2023-01-19T11:44:59.106Z,24.10
2023-01-19T11:50:04.275Z,23.85
2023-01-19T11:55:18.620Z,26.40
2023-01-19T12:00:25.407Z,19.27
2023-01-19T12:05:27.507Z,20.70
2023-01-19T12:10:31.686Z,15.60
2023-01-19T12:15:37.003Z,19.07
2023-01-19T12:20:39.407Z,17.48
2023-01-19T12:25:54.952Z,23.45
2023-01-19T12:30:55.014Z,21.63
2023-01-19T12:36:08.345Z,20.02
2023-01-19T12:41:37.609Z,27.77
2023-01-19T12:46:34.957Z,24.20
2023-01-19T12:51:36.315Z,17.38
2023-01-19T12:56:38.876Z,25.42
2023-01-19T13:01:36.243Z,13.95
2023-01-19T13:07:09.906Z,18.90
2023-01-19T13:12:24.856Z,28.55
2023-01-19T13:23:02.744Z,20.52
2023-01-19T13:28:03.028Z,16.80
2023-01-19T13:33:10.606Z,23.10
2023-01-19T13:38:11.969Z,21.38
2023-01-19T13:43:19.052Z,22.77
2023-01-19T13:48:21.009Z,14.80
2023-01-19T13:53:20.641Z,17.58
2023-01-19T13:58:23.060Z,17.85
2023-01-19T14:03:23.865Z,23.13
2023-01-19T14:08:22.899Z,14.35
2023-01-19T14:13:24.632Z,18.55
2023-01-19T14:18:27.683Z,21.10
2023-01-19T14:23:45.013Z,17.67
2023-01-19T14:28:44.526Z,18.05
2023-01-19T14:33:45.447Z,14.90
2023-01-19T14:38:44.180Z,19.17
2023-01-19T14:43:45.130Z,17.33
2023-01-19T14:48:46.742Z,14.80
2023-01-19T14:53:49.508Z,13.75
2023-01-19T14:58:47.382Z,18.13
2023-01-19T15:03:45.804Z,13.05
2023-01-19T15:08:46.241Z,14.40
2023-01-19T15:13:45.362Z,10.93
2023-01-19T15:18:43.277Z,9.15
2023-01-19T15:23:41.527Z,16.70
2023-01-19T15:28:39.738Z,16.27
2023-01-19T15:33:36.875Z,14.23
2023-01-19T15:38:37.400Z,9.38
2023-01-19T15:43:35.379Z,11.57
2023-01-19T15:48:32.592Z,11.57
2023-01-19T15:53:34.116Z,15.98
2023-01-19T15:58:31.689Z,12.80
2023-01-19T16:03:28.553Z,9.95
2023-01-19T16:08:25.362Z,9.05
2023-01-19T16:13:29.519Z,10.27
2023-01-19T16:18:27.435Z,11.95
2023-01-19T16:23:25.008Z,7.30
2023-01-19T16:28:26.077Z,7.63
2023-01-19T16:33:23.141Z,10.95
2023-01-19T16:38:23.863Z,12.85
2023-01-19T16:43:23.707Z,10.32
2023-01-19T16:48:22.420Z,12.15
2023-01-19T16:53:19.661Z,15.10
2023-01-19T16:58:24.400Z,13.75
2023-01-19T17:03:24.745Z,8.80
2023-01-19T17:08:24.898Z,6.88
2023-01-19T17:13:22.898Z,12.18
2023-01-19T17:18:23.309Z,7.95
2023-01-19T17:23:20.544Z,9.32
2023-01-19T17:28:23.801Z,7.35
2023-01-19T17:33:24.994Z,8.65
2023-01-19T17:38:24.913Z,8.65
2023-01-19T17:43:22.120Z,9.88
2023-01-19T17:48:21.021Z,9.75
2023-01-19T17:53:19.144Z,8.98
2023-01-19T17:58:16.220Z,9.88
2023-01-19T18:03:15.542Z,10.45
2023-01-19T18:08:12.559Z,10.77
2023-01-19T18:13:10.838Z,14.10
2023-01-19T18:18:08.032Z,11.73
2023-01-19T18:23:05.562Z,8.82
2023-01-19T18:28:05.996Z,10.10
2023-01-19T18:33:03.934Z,13.70
2023-01-19T18:38:01.159Z,10.60
2023-01-19T18:43:03.082Z,13.55
2023-01-19T18:48:08.344Z,10.48
2023-01-19T18:53:07.167Z,7.30
2023-01-19T18:58:16.608Z,10.38
2023-01-19T19:03:21.018Z,11.02
2023-01-19T19:08:18.535Z,11.90
2023-01-19T19:13:18.127Z,8.05
2023-01-19T19:18:17.808Z,12.63
2023-01-19T19:23:16.913Z,13.02
2023-01-19T19:28:16.761Z,8.43
2023-01-19T19:33:14.879Z,10.40
2023-01-19T19:38:14.158Z,8.98
2023-01-19T19:43:12.055Z,22.05
2023-01-19T19:48:12.006Z,9.38
2023-01-19T19:53:10.597Z,14.52
2023-01-19T19:58:10.728Z,8.90
2023-01-19T20:03:12.908Z,13.65
2023-01-19T20:08:15.099Z,13.13
2023-01-19T20:13:15.235Z,12.80
2023-01-19T20:18:12.671Z,9.23
2023-01-19T20:23:09.887Z,12.57
2023-01-19T20:28:08.971Z,15.75
2023-01-19T20:33:07.491Z,11.52
2023-01-19T20:38:05.280Z,15.30
2023-01-19T20:43:03.367Z,16.17
2023-01-19T20:48:00.535Z,10.05
2023-01-19T20:52:58.368Z,9.38
2023-01-19T20:57:55.802Z,7.40
2023-01-19T21:02:53.299Z,11.07
2023-01-19T21:07:51.233Z,8.45
2023-01-19T21:12:49.442Z,7.88
2023-01-19T21:17:47.911Z,5.40
2023-01-19T21:22:50.298Z,8.48
2023-01-19T21:27:48.833Z,5.75
2023-01-19T21:32:46.082Z,7.90
2023-01-19T21:37:43.204Z,7.60
2023-01-19T21:42:41.170Z,5.60
2023-01-19T21:47:39.261Z,4.85
2023-01-19T21:52:36.422Z,7.03
2023-01-19T21:57:33.740Z,7.32
2023-01-19T22:02:38.637Z,10.30
2023-01-19T22:07:37.126Z,6.85
2023-01-19T22:12:34.383Z,7.38
2023-01-19T22:17:31.612Z,5.80
2023-01-19T22:22:29.047Z,4.53
2023-01-19T22:27:32.347Z,5.15
2023-01-19T22:32:29.482Z,7.43
2023-01-19T22:37:26.502Z,8.25
2023-01-19T22:42:23.696Z,6.47
2023-01-19T22:47:21.634Z,6.90
2023-01-19T22:52:18.593Z,10.98
2023-01-19T22:57:15.646Z,8.70
2023-01-19T23:02:12.691Z,13.15
2023-01-19T23:07:10.376Z,6.10
2023-01-19T23:12:07.664Z,8.25
2023-01-19T23:17:04.528Z,10.70
2023-01-19T23:22:01.380Z,10.73
2023-01-19T23:27:00.926Z,7.07
2023-01-19T23:31:57.612Z,10.38
2023-01-19T23:36:54.395Z,9.85
2023-01-19T23:41:51.163Z,9.32
2023-01-19T23:46:48.752Z,14.35
2023-01-19T23:51:45.502Z,9.40
2023-01-19T23:56:42.626Z,9.07
